sensor_id;sensor_type;location;lat;lon;timestamp;temperature;humidity
7014;DHT22;3547;50.774;12.918;2023-07-13T00:03:57;17.40;99.90
7014;DHT22;3547;50.774;12.918;2023-07-13T00:06:26;17.40;99.90
7014;DHT22;3547;50.774;12.918;2023-07-13T05:30:24;16.70;1.00
7014;DHT22;3547;50.774;12.918;2023-07-13T05:37:10;16.80;1.00
7014;DHT22;3547;50.774;12.918;2023-07-13T05:39:45;16.90;1.00
7014;DHT22;3547;50.774;12.918;2023-07-13T05:42:21;17.00;1.00
7014;DHT22;3547;50.774;12.918;2023-07-13T05:44:51;17.00;1.00
7014;DHT22;3547;50.774;12.918;2023-07-13T05:47:17;17.10;1.00
7014;DHT22;3547;50.774;12.918;2023-07-13T06:28:48;18.70;1.00
7014;DHT22;3547;50.774;12.918;2023-07-13T06:36:27;19.00;1.00
7014;DHT22;3547;50.774;12.918;2023-07-13T07:14:26;19.80;1.00
7014;DHT22;3547;50.774;12.918;2023-07-13T07:23:09;19.80;99.90
7014;DHT22;3547;50.774;12.918;2023-07-13T07:25:37;19.90;99.90
7014;DHT22;3547;50.774;12.918;2023-07-13T07:28:08;20.00;1.00
7014;DHT22;3547;50.774;12.918;2023-07-13T07:30:34;20.10;1.00
7014;DHT22;3547;50.774;12.918;2023-07-13T07:33:01;20.20;1.00
7014;DHT22;3547;50.774;12.918;2023-07-13T07:35:28;20.30;99.90
7014;DHT22;3547;50.774;12.918;2023-07-13T07:38:00;20.40;99.90
7014;DHT22;3547;50.774;12.918;2023-07-13T07:40:27;20.50;99.90
7014;DHT22;3547;50.774;12.918;2023-07-13T07:43:00;20.70;99.90
7014;DHT22;3547;50.774;12.918;2023-07-13T07:45:34;20.80;99.90
7014;DHT22;3547;50.774;12.918;2023-07-13T08:10:39;20.50;99.90
7014;DHT22;3547;50.774;12.918;2023-07-13T08:22:03;20.90;99.90
7014;DHT22;3547;50.774;12.918;2023-07-13T08:33:16;21.10;99.90
7014;DHT22;3547;50.774;12.918;2023-07-13T08:54:26;20.90;99.90
7014;DHT22;3547;50.774;12.918;2023-07-13T09:31:19;23.10;99.90
7014;DHT22;3547;50.774;12.918;2023-07-13T09:34:20;23.50;99.90
7014;DHT22;3547;50.774;12.918;2023-07-13T09:37:15;23.60;99.90
7014;DHT22;3547;50.774;12.918;2023-07-13T09:43:36;23.90;99.90
7014;DHT22;3547;50.774;12.918;2023-07-13T09:48:44;23.50;99.90
7014;DHT22;3547;50.774;12.918;2023-07-13T09:51:14;23.40;99.90
7014;DHT22;3547;50.774;12.918;2023-07-13T10:01:37;23.20;99.90
7014;DHT22;3547;50.774;12.918;2023-07-13T12:56:01;27.20;99.90
7014;DHT22;3547;50.774;12.918;2023-07-13T13:25:56;24.90;99.90
7014;DHT22;3547;50.774;12.918;2023-07-13T14:04:58;30.70;99.90
7014;DHT22;3547;50.774;12.918;2023-07-13T14:07:28;29.70;99.90
7014;DHT22;3547;50.774;12.918;2023-07-13T14:57:17;28.70;99.90
7014;DHT22;3547;50.774;12.918;2023-07-13T15:21:58;26.90;99.90
7014;DHT22;3547;50.774;12.918;2023-07-13T15:24:25;28.20;99.90
7014;DHT22;3547;50.774;12.918;2023-07-13T15:26:51;28.20;99.90
7014;DHT22;3547;50.774;12.918;2023-07-13T15:29:18;27.50;99.90
7014;DHT22;3547;50.774;12.918;2023-07-13T15:34:24;28.10;99.90
7014;DHT22;3547;50.774;12.918;2023-07-13T15:36:54;28.70;99.90
7014;DHT22;3547;50.774;12.918;2023-07-13T15:39:21;30.00;99.90
7014;DHT22;3547;50.774;12.918;2023-07-13T15:41:56;31.20;99.90
7014;DHT22;3547;50.774;12.918;2023-07-13T15:44:31;30.70;99.90
7014;DHT22;3547;50.774;12.918;2023-07-13T15:47:00;30.00;99.90
7014;DHT22;3547;50.774;12.918;2023-07-13T15:49:30;29.40;99.90
7014;DHT22;3547;50.774;12.918;2023-07-13T15:51:56;29.40;99.90
7014;DHT22;3547;50.774;12.918;2023-07-13T15:54:28;30.10;99.90
7014;DHT22;3547;50.774;12.918;2023-07-13T15:57:01;31.00;99.90
7014;DHT22;3547;50.774;12.918;2023-07-13T15:59:28;31.30;99.90
7014;DHT22;3547;50.774;12.918;2023-07-13T16:01:54;32.20;99.90
7014;DHT22;3547;50.774;12.918;2023-07-13T16:04:47;30.40;99.90
7014;DHT22;3547;50.774;12.918;2023-07-13T16:07:18;29.50;99.90
7014;DHT22;3547;50.774;12.918;2023-07-13T16:09:49;29.00;99.90
7014;DHT22;3547;50.774;12.918;2023-07-13T16:12:17;28.70;99.90
7014;DHT22;3547;50.774;12.918;2023-07-13T16:14:46;29.90;99.90
7014;DHT22;3547;50.774;12.918;2023-07-13T16:17:16;30.90;99.90
7014;DHT22;3547;50.774;12.918;2023-07-13T16:23:05;31.40;99.90
7014;DHT22;3547;50.774;12.918;2023-07-13T16:25:32;30.90;99.90
7014;DHT22;3547;50.774;12.918;2023-07-13T16:28:00;30.40;99.90
7014;DHT22;3547;50.774;12.918;2023-07-13T16:30:31;29.20;99.90
7014;DHT22;3547;50.774;12.918;2023-07-13T16:33:01;29.50;99.90
7014;DHT22;3547;50.774;12.918;2023-07-13T16:35:36;30.00;99.90
7014;DHT22;3547;50.774;12.918;2023-07-13T16:38:09;30.10;99.90
7014;DHT22;3547;50.774;12.918;2023-07-13T16:40:38;31.00;99.90
7014;DHT22;3547;50.774;12.918;2023-07-13T16:43:06;31.40;99.90
7014;DHT22;3547;50.774;12.918;2023-07-13T16:45:34;31.60;99.90
7014;DHT22;3547;50.774;12.918;2023-07-13T16:48:10;32.90;99.90
7014;DHT22;3547;50.774;12.918;2023-07-13T16:50:56;32.60;99.90
7014;DHT22;3547;50.774;12.918;2023-07-13T16:53:29;31.60;99.90
7014;DHT22;3547;50.774;12.918;2023-07-13T16:55:56;31.80;99.90
7014;DHT22;3547;50.774;12.918;2023-07-13T17:01:04;31.10;99.90
7014;DHT22;3547;50.774;12.918;2023-07-13T17:03:38;29.80;99.90
7014;DHT22;3547;50.774;12.918;2023-07-13T17:06:37;28.70;99.90
7014;DHT22;3547;50.774;12.918;2023-07-13T17:09:11;28.80;99.90
7014;DHT22;3547;50.774;12.918;2023-07-13T17:11:43;30.00;99.90
7014;DHT22;3547;50.774;12.918;2023-07-13T17:14:18;30.00;99.90
7014;DHT22;3547;50.774;12.918;2023-07-13T17:16:53;30.90;99.90
7014;DHT22;3547;50.774;12.918;2023-07-13T17:19:28;32.20;99.90
7014;DHT22;3547;50.774;12.918;2023-07-13T17:21:55;32.40;99.90
7014;DHT22;3547;50.774;12.918;2023-07-13T17:24:27;31.70;99.90
7014;DHT22;3547;50.774;12.918;2023-07-13T17:26:54;31.30;99.90
7014;DHT22;3547;50.774;12.918;2023-07-13T17:29:23;30.20;99.90
7014;DHT22;3547;50.774;12.918;2023-07-13T17:31:50;29.60;99.90
7014;DHT22;3547;50.774;12.918;2023-07-13T17:34:20;29.60;99.90
7014;DHT22;3547;50.774;12.918;2023-07-13T17:36:47;30.10;99.90
7014;DHT22;3547;50.774;12.918;2023-07-13T17:39:16;30.70;99.90
7014;DHT22;3547;50.774;12.918;2023-07-13T17:41:43;30.00;99.90
7014;DHT22;3547;50.774;12.918;2023-07-13T17:44:12;29.00;99.90
7014;DHT22;3547;50.774;12.918;2023-07-13T17:46:40;28.40;99.90
7014;DHT22;3547;50.774;12.918;2023-07-13T17:49:18;27.40;99.90
7014;DHT22;3547;50.774;12.918;2023-07-13T17:51:48;26.90;99.90
7014;DHT22;3547;50.774;12.918;2023-07-13T17:54:16;26.30;99.90
7014;DHT22;3547;50.774;12.918;2023-07-13T17:56:46;26.10;99.90
7014;DHT22;3547;50.774;12.918;2023-07-13T17:59:19;25.70;99.90
7014;DHT22;3547;50.774;12.918;2023-07-13T18:01:49;25.80;99.90
7014;DHT22;3547;50.774;12.918;2023-07-13T18:04:18;25.40;99.90
7014;DHT22;3547;50.774;12.918;2023-07-13T18:06:49;25.10;99.90
7014;DHT22;3547;50.774;12.918;2023-07-13T18:09:26;24.80;99.90
7014;DHT22;3547;50.774;12.918;2023-07-13T18:11:53;24.60;99.90
7014;DHT22;3547;50.774;12.918;2023-07-13T18:14:21;24.50;99.90
7014;DHT22;3547;50.774;12.918;2023-07-13T18:16:54;24.30;99.90
7014;DHT22;3547;50.774;12.918;2023-07-13T18:21:58;24.00;99.90
7014;DHT22;3547;50.774;12.918;2023-07-13T18:24:25;23.90;99.90
7014;DHT22;3547;50.774;12.918;2023-07-13T18:26:54;23.70;99.90
7014;DHT22;3547;50.774;12.918;2023-07-13T18:29:24;23.70;99.90
7014;DHT22;3547;50.774;12.918;2023-07-13T18:31:50;23.60;99.90
7014;DHT22;3547;50.774;12.918;2023-07-13T18:34:26;23.50;99.90
7014;DHT22;3547;50.774;12.918;2023-07-13T18:36:57;23.40;99.90
7014;DHT22;3547;50.774;12.918;2023-07-13T18:42:00;23.00;99.90
7014;DHT22;3547;50.774;12.918;2023-07-13T18:44:29;22.70;99.90
7014;DHT22;3547;50.774;12.918;2023-07-13T18:46:59;22.70;99.90
7014;DHT22;3547;50.774;12.918;2023-07-13T18:49:28;22.50;99.90
7014;DHT22;3547;50.774;12.918;2023-07-13T18:51:55;22.30;99.90
7014;DHT22;3547;50.774;12.918;2023-07-13T19:06:08;21.90;99.90
7014;DHT22;3547;50.774;12.918;2023-07-13T19:08:43;21.70;99.90
7014;DHT22;3547;50.774;12.918;2023-07-13T19:13:54;21.50;99.90
7014;DHT22;3547;50.774;12.918;2023-07-13T21:03:03;19.10;99.90
7014;DHT22;3547;50.774;12.918;2023-07-13T21:05:41;19.10;99.90
7014;DHT22;3547;50.774;12.918;2023-07-13T21:08:15;19.00;99.90
7014;DHT22;3547;50.774;12.918;2023-07-13T21:10:44;19.00;99.90
7014;DHT22;3547;50.774;12.918;2023-07-13T21:13:11;19.00;99.90
7014;DHT22;3547;50.774;12.918;2023-07-13T21:15:40;19.10;99.90
7014;DHT22;3547;50.774;12.918;2023-07-13T21:18:24;19.10;99.90
7014;DHT22;3547;50.774;12.918;2023-07-13T21:20:55;19.00;99.90
7014;DHT22;3547;50.774;12.918;2023-07-13T21:23:34;19.00;99.90
7014;DHT22;3547;50.774;12.918;2023-07-13T21:26:03;18.90;99.90
7014;DHT22;3547;50.774;12.918;2023-07-13T21:28:35;18.80;99.90
7014;DHT22;3547;50.774;12.918;2023-07-13T21:31:11;18.80;99.90
7014;DHT22;3547;50.774;12.918;2023-07-13T21:33:40;18.80;99.90
7014;DHT22;3547;50.774;12.918;2023-07-13T21:36:16;18.70;99.90
7014;DHT22;3547;50.774;12.918;2023-07-13T21:52:41;18.60;99.90
7014;DHT22;3547;50.774;12.918;2023-07-13T21:58:45;18.40;99.90
7014;DHT22;3547;50.774;12.918;2023-07-13T22:01:28;18.50;99.90
7014;DHT22;3547;50.774;12.918;2023-07-13T22:07:22;18.40;99.90
7014;DHT22;3547;50.774;12.918;2023-07-13T22:09:49;18.40;99.90
7014;DHT22;3547;50.774;12.918;2023-07-13T22:12:21;18.40;99.90
7014;DHT22;3547;50.774;12.918;2023-07-13T22:14:48;18.30;99.90
